createdAt,value
2022-12-18T00:00:39.151Z,2.7
2022-12-18T00:01:35.521Z,2.1
2022-12-18T00:02:34.673Z,1.8
2022-12-18T00:03:35.051Z,1.6
2022-12-18T00:04:34.236Z,1.9
2022-12-18T00:05:35.043Z,1.6
2022-12-18T00:06:35.226Z,1.5
2022-12-18T00:07:35.368Z,2.2
2022-12-18T00:08:34.422Z,1.9
2022-12-18T00:09:39.532Z,2.4
2022-12-18T00:10:34.825Z,2.7
2022-12-18T00:11:34.668Z,2.1
2022-12-18T00:12:34.543Z,1.6
2022-12-18T00:13:35.320Z,2.0
2022-12-18T00:14:34.112Z,1.9
2022-12-18T00:15:35.256Z,1.8
2022-12-18T00:16:34.621Z,1.7
2022-12-18T00:17:34.451Z,1.6
2022-12-18T00:18:34.252Z,1.7
2022-12-18T00:19:34.961Z,1.7
2022-12-18T00:20:38.474Z,2.2
2022-12-18T00:21:34.576Z,1.2
2022-12-18T00:22:34.439Z,1.9
2022-12-18T00:23:35.509Z,1.9
2022-12-18T00:24:34.865Z,2.1
2022-12-18T00:25:35.741Z,1.4
2022-12-18T00:26:34.824Z,1.6
2022-12-18T00:27:34.359Z,2.0
2022-12-18T00:28:34.228Z,2.1
2022-12-18T00:29:34.911Z,1.5
2022-12-18T00:30:34.686Z,1.7
2022-12-18T00:31:34.640Z,1.4
2022-12-18T00:32:34.361Z,1.8
2022-12-18T00:33:34.344Z,1.7
2022-12-18T00:34:34.860Z,2.6
2022-12-18T00:35:34.597Z,1.6
2022-12-18T00:36:34.571Z,1.2
2022-12-18T00:37:34.607Z,1.8
2022-12-18T00:38:34.157Z,1.9
2022-12-18T00:39:34.920Z,1.1
2022-12-18T00:40:34.578Z,2.6
2022-12-18T00:41:34.408Z,2.6
2022-12-18T00:42:34.267Z,1.7
2022-12-18T00:43:34.060Z,1.8
2022-12-18T00:44:34.731Z,1.1
2022-12-18T00:45:36.413Z,1.9
2022-12-18T00:46:34.354Z,0.6
2022-12-18T00:47:34.175Z,2.1
2022-12-18T00:48:34.916Z,2.1
2022-12-18T00:49:34.767Z,1.8
2022-12-18T00:50:34.569Z,1.4
2022-12-18T00:51:34.400Z,1.7
2022-12-18T00:52:34.156Z,2.0
2022-12-18T00:53:34.896Z,1.6
2022-12-18T00:54:34.670Z,1.9
2022-12-18T00:55:34.525Z,1.7
2022-12-18T00:56:35.356Z,1.8
2022-12-18T00:57:34.101Z,1.7
2022-12-18T00:58:33.919Z,1.9
2022-12-18T00:59:34.689Z,1.9
2022-12-18T01:00:34.886Z,1.7
2022-12-18T01:01:34.463Z,1.4
2022-12-18T01:02:34.216Z,2.0
2022-12-18T01:03:33.948Z,1.5
2022-12-18T01:04:34.747Z,1.4
2022-12-18T01:05:34.406Z,1.6
2022-12-18T01:06:34.235Z,1.9
2022-12-18T01:07:34.031Z,1.2
2022-12-18T01:08:34.907Z,1.3
2022-12-18T01:09:34.629Z,1.7
2022-12-18T01:10:34.447Z,1.3
2022-12-18T01:11:34.227Z,2.2
2022-12-18T01:12:34.112Z,1.9
2022-12-18T01:13:35.089Z,1.9
2022-12-18T01:14:34.533Z,1.6
2022-12-18T01:15:34.395Z,1.8
2022-12-18T01:16:34.354Z,1.4
2022-12-18T01:17:34.069Z,2.0
2022-12-18T01:18:35.060Z,1.1
2022-12-18T01:19:35.221Z,1.2
2022-12-18T01:20:34.402Z,1.9
2022-12-18T01:21:34.182Z,1.9
2022-12-18T01:22:34.171Z,1.7
2022-12-18T01:23:34.705Z,0.9
2022-12-18T01:24:34.512Z,0.8
2022-12-18T01:25:36.033Z,1.6
2022-12-18T01:26:34.092Z,1.5
2022-12-18T01:27:34.822Z,1.4
2022-12-18T01:28:34.792Z,1.8
2022-12-18T01:29:34.522Z,0.9
2022-12-18T01:30:34.250Z,1.8
2022-12-18T01:31:34.245Z,1.4
2022-12-18T01:32:34.776Z,1.0
2022-12-18T01:33:34.536Z,1.2
2022-12-18T01:34:35.681Z,2.5
2022-12-18T01:35:39.046Z,2.0
2022-12-18T01:36:35.535Z,2.1
2022-12-18T01:37:34.675Z,1.6
2022-12-18T01:38:34.514Z,1.8
2022-12-18T01:39:34.316Z,2.0
2022-12-18T01:40:34.351Z,1.5
2022-12-18T01:41:34.206Z,1.4
2022-12-18T01:42:34.666Z,1.6
2022-12-18T01:43:45.098Z,1.7
2022-12-18T01:44:52.194Z,1.9
2022-12-18T01:45:34.125Z,1.6
2022-12-18T01:46:33.892Z,1.3
2022-12-18T01:47:39.591Z,1.1
2022-12-18T01:48:34.434Z,1.8
2022-12-18T01:49:34.246Z,1.7
2022-12-18T01:50:36.097Z,1.6
2022-12-18T01:51:33.953Z,0.9
2022-12-18T01:52:34.749Z,1.0
2022-12-18T01:53:34.708Z,1.8
2022-12-18T01:54:34.190Z,1.2
2022-12-18T01:55:41.414Z,1.2
2022-12-18T01:56:34.756Z,1.7
2022-12-18T01:57:34.881Z,1.7
2022-12-18T01:58:41.760Z,0.6
2022-12-18T01:59:35.005Z,1.6
2022-12-18T02:00:34.086Z,1.5
2022-12-18T02:01:35.305Z,1.8
2022-12-18T02:02:34.998Z,1.1
2022-12-18T02:03:34.382Z,1.9
2022-12-18T02:04:34.187Z,1.0
2022-12-18T02:05:47.595Z,1.7
2022-12-18T02:06:37.938Z,1.7
2022-12-18T02:07:42.339Z,1.6
2022-12-18T02:08:47.776Z,2.1
2022-12-18T02:09:37.016Z,1.9
2022-12-18T02:10:41.795Z,1.2
2022-12-18T02:11:45.269Z,1.7
2022-12-18T02:12:45.325Z,1.8
2022-12-18T02:13:47.795Z,1.2
2022-12-18T02:14:41.794Z,1.6
2022-12-18T02:15:38.824Z,1.8
2022-12-18T02:16:39.552Z,1.2
2022-12-18T02:17:39.364Z,1.6
2022-12-18T02:18:36.884Z,2.0
2022-12-18T02:19:44.785Z,1.5
2022-12-18T02:20:36.238Z,1.5
2022-12-18T02:21:39.483Z,1.5
2022-12-18T02:22:48.292Z,1.5
2022-12-18T02:23:44.805Z,1.7
2022-12-18T02:24:38.980Z,1.9
2022-12-18T02:25:51.721Z,1.5
2022-12-18T02:26:42.283Z,1.3
2022-12-18T02:27:35.482Z,1.3
2022-12-18T02:28:36.308Z,1.8
2022-12-18T02:29:46.545Z,1.3
2022-12-18T02:30:35.360Z,1.9
2022-12-18T02:31:39.426Z,1.6
2022-12-18T02:32:36.632Z,0.7
2022-12-18T02:33:35.208Z,0.8
2022-12-18T02:34:36.778Z,1.0
2022-12-18T02:35:36.061Z,1.4
2022-12-18T02:36:35.348Z,1.5
2022-12-18T02:37:35.344Z,1.0
2022-12-18T02:38:34.842Z,1.3
2022-12-18T02:39:35.565Z,1.0
2022-12-18T02:40:35.682Z,1.1
2022-12-18T02:41:34.928Z,1.7
2022-12-18T02:42:34.373Z,1.2
2022-12-18T02:43:34.147Z,0.8
2022-12-18T02:44:34.775Z,1.1
2022-12-18T02:45:34.755Z,1.1
2022-12-18T02:46:36.802Z,1.4
2022-12-18T02:47:36.712Z,2.0
2022-12-18T02:48:35.025Z,1.0
2022-12-18T02:49:38.920Z,1.7
2022-12-18T02:50:35.853Z,1.6
2022-12-18T02:51:39.404Z,1.5
2022-12-18T02:52:38.987Z,2.0
2022-12-18T02:53:39.046Z,1.3
2022-12-18T02:54:47.389Z,1.1
2022-12-18T02:55:41.825Z,1.8
2022-12-18T02:56:41.794Z,1.3
2022-12-18T02:57:39.595Z,0.9
2022-12-18T02:58:39.379Z,1.3
2022-12-18T02:59:39.195Z,1.8
2022-12-18T03:00:40.759Z,1.0
2022-12-18T03:01:38.728Z,1.3
2022-12-18T03:02:42.434Z,1.3
2022-12-18T03:03:38.462Z,1.8
2022-12-18T03:04:38.335Z,1.0
2022-12-18T03:05:40.387Z,0.8
2022-12-18T03:06:40.157Z,1.4
2022-12-18T03:07:39.482Z,1.4
2022-12-18T03:08:38.707Z,0.8
2022-12-18T03:09:39.255Z,0.9
2022-12-18T03:10:38.596Z,1.4
2022-12-18T03:11:37.558Z,0.6
2022-12-18T03:12:40.130Z,1.0
2022-12-18T03:13:44.787Z,1.1
2022-12-18T03:14:34.634Z,1.1
2022-12-18T03:15:36.882Z,1.7
2022-12-18T03:16:35.831Z,1.5
2022-12-18T03:17:35.124Z,0.5
2022-12-18T03:18:46.515Z,1.4
2022-12-18T03:19:34.827Z,1.1
2022-12-18T03:20:34.780Z,1.3
2022-12-18T03:21:40.219Z,0.6
2022-12-18T03:22:35.224Z,1.0
2022-12-18T03:23:38.787Z,0.6
2022-12-18T03:24:35.818Z,1.7
2022-12-18T03:25:36.011Z,2.0
2022-12-18T03:26:35.145Z,1.0
2022-12-18T03:27:36.202Z,0.8
2022-12-18T03:28:36.741Z,1.3
2022-12-18T03:29:36.072Z,0.9
2022-12-18T03:30:37.555Z,1.3
2022-12-18T03:31:34.957Z,1.5
2022-12-18T03:32:43.201Z,1.0
2022-12-18T03:33:43.882Z,1.5
2022-12-18T03:34:36.503Z,1.2
2022-12-18T03:35:37.655Z,0.7
2022-12-18T03:36:34.608Z,1.2
2022-12-18T03:37:34.592Z,1.1
2022-12-18T03:38:34.269Z,1.4
2022-12-18T03:39:34.898Z,1.4
2022-12-18T03:40:45.320Z,1.0
2022-12-18T03:41:45.190Z,1.3
2022-12-18T03:42:41.856Z,1.4
2022-12-18T03:43:47.826Z,1.5
2022-12-18T03:44:45.288Z,1.1
2022-12-18T03:45:36.416Z,1.7
2022-12-18T03:46:42.302Z,1.4
2022-12-18T03:47:41.795Z,1.3
2022-12-18T03:48:44.711Z,0.9
2022-12-18T03:49:49.085Z,0.9
2022-12-18T03:50:51.290Z,0.8
2022-12-18T03:51:47.741Z,0.9
2022-12-18T03:52:39.019Z,1.1
2022-12-18T03:53:56.799Z,1.0
2022-12-18T03:54:35.660Z,0.9
2022-12-18T03:55:35.325Z,1.4
2022-12-18T03:56:37.488Z,0.9
2022-12-18T03:57:34.389Z,1.2
2022-12-18T03:58:35.607Z,0.8
2022-12-18T03:59:35.295Z,1.3
2022-12-18T04:00:34.871Z,1.6
2022-12-18T04:01:41.936Z,1.5
2022-12-18T04:02:35.086Z,0.8
2022-12-18T04:03:36.390Z,1.3
2022-12-18T04:04:35.945Z,0.6
2022-12-18T04:05:35.308Z,1.2
2022-12-18T04:06:35.762Z,1.2
2022-12-18T04:07:34.686Z,1.2
2022-12-18T04:08:34.463Z,1.6
2022-12-18T04:09:35.275Z,1.1
2022-12-18T04:10:34.375Z,1.1
2022-12-18T04:11:34.171Z,1.0
2022-12-18T04:12:34.096Z,0.9
2022-12-18T04:13:36.356Z,0.7
2022-12-18T04:14:34.529Z,1.2
2022-12-18T04:15:35.367Z,0.6
2022-12-18T04:16:34.191Z,0.5
2022-12-18T04:17:33.978Z,0.9
2022-12-18T04:18:34.821Z,1.2
2022-12-18T04:19:34.492Z,0.8
2022-12-18T04:20:34.287Z,0.9
2022-12-18T04:21:34.097Z,0.8
2022-12-18T04:22:33.884Z,0.5
2022-12-18T04:23:34.631Z,0.7
2022-12-18T04:24:34.518Z,1.6
2022-12-18T04:25:34.258Z,1.3
2022-12-18T04:26:34.132Z,0.6
2022-12-18T04:27:33.937Z,0.2
2022-12-18T04:28:34.586Z,1.1
2022-12-18T04:29:34.368Z,1.1
2022-12-18T04:30:34.254Z,1.4
2022-12-18T04:31:34.123Z,1.2
2022-12-18T04:32:34.946Z,1.3
2022-12-18T04:33:34.522Z,0.9
2022-12-18T04:34:34.418Z,1.1
2022-12-18T04:35:34.231Z,0.6
2022-12-18T04:36:34.005Z,1.0
2022-12-18T04:37:34.627Z,1.0
2022-12-18T04:38:34.493Z,1.2
2022-12-18T04:39:34.305Z,1.2
2022-12-18T04:40:34.450Z,1.3
2022-12-18T04:41:33.886Z,0.7
2022-12-18T04:42:34.663Z,0.6
2022-12-18T04:43:34.542Z,1.0
2022-12-18T04:44:34.258Z,0.9
2022-12-18T04:45:34.269Z,0.7
2022-12-18T04:46:34.052Z,0.7
2022-12-18T04:47:34.543Z,0.8
2022-12-18T04:48:34.708Z,0.8
2022-12-18T04:49:34.173Z,1.4
2022-12-18T04:50:34.005Z,0.6
2022-12-18T04:51:34.775Z,0.8
2022-12-18T04:52:34.515Z,0.8
2022-12-18T04:53:34.433Z,0.4
2022-12-18T04:54:34.202Z,1.1
2022-12-18T04:55:33.985Z,1.0
2022-12-18T04:56:34.681Z,1.0
2022-12-18T04:57:34.491Z,0.5
2022-12-18T04:58:34.383Z,1.2
2022-12-18T04:59:34.071Z,1.1
2022-12-18T05:00:33.925Z,1.4
2022-12-18T05:01:35.160Z,0.8
2022-12-18T05:02:34.665Z,0.8
2022-12-18T05:03:34.711Z,0.7
2022-12-18T05:04:34.111Z,1.0
2022-12-18T05:05:36.869Z,1.2
2022-12-18T05:06:34.571Z,1.4
2022-12-18T05:07:34.484Z,0.8
2022-12-18T05:08:34.237Z,1.1
2022-12-18T05:09:34.005Z,0.9
2022-12-18T05:10:38.015Z,1.1
2022-12-18T05:11:34.582Z,1.2
2022-12-18T05:12:34.434Z,0.9
2022-12-18T05:13:34.794Z,1.6
2022-12-18T05:14:34.022Z,0.9
2022-12-18T05:15:34.856Z,0.6
2022-12-18T05:16:34.505Z,0.7
2022-12-18T05:17:34.310Z,0.9
2022-12-18T05:18:34.286Z,1.4
2022-12-18T05:19:33.983Z,1.0
2022-12-18T05:20:34.689Z,0.7
2022-12-18T05:21:34.503Z,0.9
2022-12-18T05:22:34.389Z,1.1
2022-12-18T05:23:34.339Z,1.3
2022-12-18T05:24:34.104Z,0.8
2022-12-18T05:25:34.674Z,1.2
2022-12-18T05:26:34.529Z,1.2
2022-12-18T05:27:34.468Z,1.4
2022-12-18T05:28:34.858Z,1.2
2022-12-18T05:29:33.996Z,0.4
2022-12-18T05:30:34.767Z,0.7
2022-12-18T05:31:39.050Z,1.1
2022-12-18T05:32:34.341Z,1.0
2022-12-18T05:33:34.797Z,0.9
2022-12-18T05:34:33.922Z,1.2
2022-12-18T05:35:34.591Z,1.0
2022-12-18T05:36:34.527Z,1.2
2022-12-18T05:37:39.523Z,1.1
2022-12-18T05:38:35.163Z,0.8
2022-12-18T05:39:34.789Z,0.7
2022-12-18T05:40:34.630Z,0.8
2022-12-18T05:41:34.513Z,1.3
2022-12-18T05:42:34.205Z,0.8
2022-12-18T05:43:34.973Z,1.1
2022-12-18T05:44:34.740Z,0.9
2022-12-18T05:45:36.622Z,0.6
2022-12-18T05:46:34.370Z,1.1
2022-12-18T05:47:34.963Z,0.7
2022-12-18T05:48:33.984Z,1.2
2022-12-18T05:49:34.712Z,0.4
2022-12-18T05:50:35.261Z,1.0
2022-12-18T05:51:34.381Z,1.1
2022-12-18T05:52:34.163Z,0.6
2022-12-18T05:53:34.773Z,1.2
2022-12-18T05:54:34.606Z,1.4
2022-12-18T05:55:38.266Z,1.0
2022-12-18T05:56:34.260Z,0.8
2022-12-18T05:57:34.066Z,0.8
2022-12-18T05:58:34.152Z,0.6
2022-12-18T05:59:34.259Z,1.3
2022-12-18T06:00:35.264Z,0.9
2022-12-18T06:01:34.805Z,0.6
2022-12-18T06:02:34.614Z,0.6
2022-12-18T06:03:34.443Z,0.4
2022-12-18T06:04:34.078Z,0.2
2022-12-18T06:05:40.662Z,0.6
2022-12-18T06:06:34.631Z,0.9
2022-12-18T06:07:34.401Z,0.8
2022-12-18T06:08:34.207Z,0.8
2022-12-18T06:09:34.029Z,0.5
2022-12-18T06:10:34.931Z,0.3
2022-12-18T06:11:35.232Z,0.9
2022-12-18T06:12:34.380Z,0.8
2022-12-18T06:13:34.258Z,0.9
2022-12-18T06:14:34.038Z,1.3
2022-12-18T06:15:36.417Z,1.1
2022-12-18T06:16:34.599Z,1.4
2022-12-18T06:17:34.578Z,0.7
2022-12-18T06:18:34.466Z,0.9
2022-12-18T06:19:33.980Z,0.8
2022-12-18T06:20:34.652Z,0.8
2022-12-18T06:21:34.571Z,0.6
2022-12-18T06:22:34.309Z,0.7
2022-12-18T06:23:34.304Z,1.0
2022-12-18T06:24:33.962Z,0.4
2022-12-18T06:25:37.275Z,1.2
2022-12-18T06:26:36.553Z,0.5
2022-12-18T06:27:34.339Z,0.9
2022-12-18T06:28:34.057Z,1.0
2022-12-18T06:29:33.850Z,0.6
2022-12-18T06:30:34.606Z,0.8
2022-12-18T06:31:34.529Z,0.5
2022-12-18T06:32:34.264Z,0.8
2022-12-18T06:33:34.122Z,1.2
2022-12-18T06:34:34.707Z,1.1
2022-12-18T06:35:34.555Z,0.8
2022-12-18T06:36:34.312Z,0.6
2022-12-18T06:37:34.158Z,0.8
2022-12-18T06:38:34.732Z,1.8
2022-12-18T06:39:34.664Z,0.8
2022-12-18T06:40:34.497Z,0.7
2022-12-18T06:41:34.331Z,0.8
2022-12-18T06:42:34.184Z,0.9
2022-12-18T06:43:33.918Z,1.0
2022-12-18T06:44:34.564Z,1.2
2022-12-18T06:45:34.454Z,0.8
2022-12-18T06:46:34.210Z,0.9
2022-12-18T06:47:34.187Z,1.0
2022-12-18T06:48:34.316Z,0.9
2022-12-18T06:49:34.616Z,0.2
2022-12-18T06:50:34.433Z,1.4
2022-12-18T06:51:34.229Z,0.9
2022-12-18T06:52:34.064Z,0.9
2022-12-18T06:53:34.041Z,1.0
2022-12-18T06:54:34.538Z,0.8
2022-12-18T06:55:34.416Z,0.6
2022-12-18T06:56:34.279Z,0.4
2022-12-18T06:57:34.004Z,0.7
2022-12-18T06:58:34.794Z,1.3
2022-12-18T06:59:34.554Z,1.1
2022-12-18T07:00:34.365Z,0.7
2022-12-18T07:01:34.362Z,0.8
2022-12-18T07:02:34.349Z,1.4
2022-12-18T07:03:34.812Z,0.9
2022-12-18T07:04:34.504Z,0.6
2022-12-18T07:05:34.360Z,1.2
2022-12-18T07:06:34.106Z,0.6
2022-12-18T07:07:34.600Z,1.0
2022-12-18T07:08:34.627Z,1.1
2022-12-18T07:09:34.637Z,0.4
2022-12-18T07:10:43.244Z,1.1
2022-12-18T07:11:34.992Z,0.9
2022-12-18T07:12:33.890Z,0.9
2022-12-18T07:13:34.542Z,1.3
2022-12-18T07:14:34.480Z,1.1
2022-12-18T07:15:34.183Z,0.6
2022-12-18T07:16:34.061Z,0.9
2022-12-18T07:17:34.782Z,0.7
2022-12-18T07:18:34.632Z,1.0
2022-12-18T07:19:34.430Z,0.4
2022-12-18T07:20:34.211Z,0.7
2022-12-18T07:21:34.024Z,0.8
2022-12-18T07:22:34.658Z,0.4
2022-12-18T07:23:35.341Z,1.0
2022-12-18T07:24:34.305Z,0.8
2022-12-18T07:25:37.163Z,0.7
2022-12-18T07:26:34.014Z,0.9
2022-12-18T07:27:34.607Z,0.7
2022-12-18T07:28:35.042Z,0.6
2022-12-18T07:29:34.270Z,0.7
2022-12-18T07:30:36.622Z,0.9
2022-12-18T07:31:33.956Z,0.8
2022-12-18T07:32:34.567Z,0.7
2022-12-18T07:33:34.493Z,0.8
2022-12-18T07:34:34.414Z,0.5
2022-12-18T07:35:33.962Z,0.7
2022-12-18T07:36:34.768Z,0.7
2022-12-18T07:37:34.569Z,0.4
2022-12-18T07:38:34.915Z,0.5
2022-12-18T07:39:34.162Z,0.5
2022-12-18T07:40:33.955Z,0.5
2022-12-18T07:41:34.639Z,0.4
2022-12-18T07:42:34.603Z,0.4
2022-12-18T07:43:34.627Z,0.8
2022-12-18T07:44:34.060Z,1.0
2022-12-18T07:45:33.977Z,0.5
2022-12-18T07:46:34.601Z,0.4
2022-12-18T07:47:35.423Z,0.7
2022-12-18T07:48:34.233Z,0.5
2022-12-18T07:49:34.144Z,1.3
2022-12-18T07:50:34.043Z,0.7
2022-12-18T07:51:34.500Z,0.9
2022-12-18T07:52:34.401Z,0.6
2022-12-18T07:53:34.752Z,0.9
2022-12-18T07:54:33.976Z,0.6
2022-12-18T07:56:00.012Z,1.1
2022-12-18T07:56:34.519Z,0.6
2022-12-18T07:57:49.947Z,1.0
2022-12-18T07:58:34.279Z,0.7
2022-12-18T07:59:33.955Z,0.9
2022-12-18T08:00:34.765Z,1.1
2022-12-18T08:01:34.624Z,0.6
2022-12-18T08:02:34.433Z,0.7
2022-12-18T08:03:34.447Z,0.4
2022-12-18T08:04:34.797Z,0.5
2022-12-18T08:05:34.603Z,0.5
2022-12-18T08:06:34.467Z,0.5
2022-12-18T08:07:34.208Z,0.9
2022-12-18T08:08:34.391Z,0.6
2022-12-18T08:09:34.686Z,1.0
2022-12-18T08:10:34.553Z,0.7
2022-12-18T08:11:34.320Z,0.3
2022-12-18T08:12:34.162Z,1.0
2022-12-18T08:13:33.967Z,0.6
2022-12-18T08:14:34.727Z,0.3
2022-12-18T08:15:34.454Z,0.4
2022-12-18T08:16:34.428Z,0.6
2022-12-18T08:17:34.111Z,0.6
2022-12-18T08:18:34.716Z,1.1
2022-12-18T08:19:34.602Z,0.4
2022-12-18T08:20:34.460Z,0.5
2022-12-18T08:21:34.251Z,0.4
2022-12-18T08:22:34.639Z,0.3
2022-12-18T08:23:39.260Z,0.3
2022-12-18T08:24:34.627Z,0.9
2022-12-18T08:25:34.448Z,0.6
2022-12-18T08:26:34.224Z,0.4
2022-12-18T08:27:34.101Z,0.5
2022-12-18T08:28:34.751Z,0.2
2022-12-18T08:29:34.522Z,0.8
2022-12-18T08:30:35.297Z,0.7
2022-12-18T08:31:34.258Z,1.3
2022-12-18T08:32:34.120Z,0.4
2022-12-18T08:33:35.543Z,0.6
2022-12-18T08:34:34.509Z,0.9
2022-12-18T08:35:41.093Z,1.1
2022-12-18T08:36:34.115Z,1.2
2022-12-18T08:37:33.892Z,1.1
2022-12-18T08:38:34.584Z,0.6
2022-12-18T08:39:34.367Z,0.5
2022-12-18T08:40:34.221Z,0.9
2022-12-18T08:41:34.208Z,0.7
2022-12-18T08:42:34.795Z,1.3
2022-12-18T08:43:34.624Z,0.7
2022-12-18T08:44:34.415Z,1.1
2022-12-18T08:45:34.289Z,0.9
2022-12-18T08:46:35.724Z,0.7
2022-12-18T08:47:34.619Z,0.7
2022-12-18T08:48:34.461Z,0.7
2022-12-18T08:49:34.748Z,0.6
2022-12-18T08:50:34.146Z,1.0
2022-12-18T08:51:34.390Z,0.8
2022-12-18T08:52:34.658Z,0.8
2022-12-18T08:53:35.890Z,1.1
2022-12-18T08:54:34.262Z,1.0
2022-12-18T08:55:34.074Z,1.6
2022-12-18T08:56:34.774Z,1.1
2022-12-18T08:57:34.558Z,0.6
2022-12-18T08:58:34.347Z,0.4
2022-12-18T08:59:34.226Z,0.9
2022-12-18T09:00:34.056Z,0.8
2022-12-18T09:01:35.400Z,0.8
2022-12-18T09:02:34.667Z,0.8
2022-12-18T09:03:34.453Z,0.6
2022-12-18T09:04:34.142Z,1.2
2022-12-18T09:05:33.990Z,0.3
2022-12-18T09:06:34.663Z,0.4
2022-12-18T09:07:34.502Z,0.6
2022-12-18T09:08:34.514Z,0.6
2022-12-18T09:09:34.057Z,0.4
2022-12-18T09:10:37.648Z,0.7
2022-12-18T09:11:34.615Z,0.6
2022-12-18T09:12:34.458Z,0.8
2022-12-18T09:13:34.312Z,0.5
2022-12-18T09:14:34.061Z,0.7
2022-12-18T09:15:33.895Z,0.4
2022-12-18T09:16:34.563Z,1.0
2022-12-18T09:17:34.411Z,0.5
2022-12-18T09:18:34.215Z,0.8
2022-12-18T09:19:33.966Z,0.9
2022-12-18T09:20:35.338Z,0.7
2022-12-18T09:21:35.997Z,0.7
2022-12-18T09:22:34.302Z,0.6
2022-12-18T09:23:34.263Z,0.5
2022-12-18T09:24:33.968Z,1.1
2022-12-18T09:25:35.005Z,0.7
2022-12-18T09:26:34.420Z,0.7
2022-12-18T09:27:34.672Z,0.9
2022-12-18T09:28:34.106Z,0.8
2022-12-18T09:29:34.795Z,0.4
2022-12-18T09:30:36.789Z,0.6
2022-12-18T09:31:34.748Z,0.6
2022-12-18T09:32:34.233Z,0.1
2022-12-18T09:33:35.009Z,0.7
2022-12-18T09:34:34.671Z,0.6
2022-12-18T09:35:37.947Z,0.6
2022-12-18T09:36:34.299Z,0.4
2022-12-18T09:37:34.119Z,0.2
2022-12-18T09:38:34.327Z,0.8
2022-12-18T09:39:35.958Z,0.6
2022-12-18T09:40:36.147Z,0.7
2022-12-18T09:41:39.201Z,0.5
2022-12-18T09:42:34.138Z,0.6
2022-12-18T09:43:41.877Z,0.6
2022-12-18T09:44:45.013Z,0.8
2022-12-18T09:45:39.310Z,1.0
2022-12-18T09:46:36.753Z,1.0
2022-12-18T09:47:36.468Z,0.4
2022-12-18T09:48:35.955Z,0.8
2022-12-18T09:49:37.295Z,0.6
2022-12-18T09:50:37.500Z,0.7
2022-12-18T09:51:39.075Z,0.8
2022-12-18T09:52:35.864Z,1.0
2022-12-18T09:53:38.843Z,0.7
2022-12-18T09:54:40.980Z,0.8
2022-12-18T09:55:37.193Z,0.9
2022-12-18T09:56:39.169Z,0.8
2022-12-18T09:57:35.894Z,0.7
2022-12-18T09:58:42.311Z,0.4
2022-12-18T09:59:36.154Z,0.6
2022-12-18T10:00:34.303Z,0.7
2022-12-18T10:01:41.561Z,0.8
2022-12-18T10:02:34.212Z,0.8
2022-12-18T10:03:34.595Z,0.4
2022-12-18T10:04:34.538Z,0.3
2022-12-18T10:05:37.638Z,0.6
2022-12-18T10:06:41.875Z,0.7
2022-12-18T10:07:51.773Z,0.4
2022-12-18T10:08:42.359Z,0.9
2022-12-18T10:09:39.293Z,0.4
2022-12-18T10:10:39.147Z,0.8
2022-12-18T10:11:50.845Z,0.5
2022-12-18T10:12:44.325Z,0.6
2022-12-18T10:13:48.327Z,0.5
2022-12-18T10:14:39.247Z,0.7
2022-12-18T10:15:41.876Z,0.4
2022-12-18T10:16:38.878Z,0.0
2022-12-18T10:17:42.314Z,0.7
2022-12-18T10:18:52.773Z,0.7
2022-12-18T10:19:41.892Z,0.6
2022-12-18T10:20:48.791Z,0.2
2022-12-18T10:21:38.535Z,0.3
2022-12-18T10:22:45.312Z,1.0
2022-12-18T10:23:42.479Z,0.7
2022-12-18T10:24:39.198Z,0.4
2022-12-18T10:25:55.595Z,1.0
2022-12-18T10:26:34.493Z,0.6
2022-12-18T10:27:34.749Z,0.4
2022-12-18T10:28:36.467Z,0.7
2022-12-18T10:29:34.351Z,0.5
2022-12-18T10:30:34.150Z,0.9
2022-12-18T10:31:34.035Z,0.2
2022-12-18T10:32:35.338Z,0.7
2022-12-18T10:33:34.435Z,0.2
2022-12-18T10:34:34.223Z,0.7
2022-12-18T10:35:34.579Z,1.0
2022-12-18T10:36:33.861Z,0.4
2022-12-18T10:37:34.561Z,0.8
2022-12-18T10:38:34.449Z,0.9
2022-12-18T10:39:34.239Z,0.5
2022-12-18T10:40:38.978Z,0.4
2022-12-18T10:41:33.881Z,0.7
2022-12-18T10:42:34.561Z,1.0
2022-12-18T10:43:35.847Z,0.9
2022-12-18T10:44:34.161Z,0.7
2022-12-18T10:45:34.017Z,0.2
2022-12-18T10:46:34.872Z,0.6
2022-12-18T10:47:34.772Z,0.9
2022-12-18T10:48:41.014Z,0.9
2022-12-18T10:49:34.905Z,0.9
2022-12-18T10:51:09.022Z,0.7
2022-12-18T10:51:35.983Z,0.3
2022-12-18T10:52:34.614Z,0.7
2022-12-18T10:53:36.350Z,0.7
2022-12-18T10:54:34.990Z,0.7
2022-12-18T10:55:38.329Z,0.4
2022-12-18T10:56:35.795Z,0.2
2022-12-18T10:57:38.828Z,0.5
2022-12-18T10:58:35.249Z,0.3
2022-12-18T10:59:38.993Z,0.5
2022-12-18T11:00:34.061Z,0.3
2022-12-18T11:01:51.195Z,0.3
2022-12-18T11:02:35.922Z,1.0
2022-12-18T11:03:41.290Z,1.0
2022-12-18T11:04:34.097Z,0.5
2022-12-18T11:05:34.978Z,0.5
2022-12-18T11:06:39.570Z,0.8
2022-12-18T11:07:49.739Z,0.8
2022-12-18T11:08:34.321Z,0.8
2022-12-18T11:09:34.851Z,0.4
2022-12-18T11:10:36.554Z,0.8
2022-12-18T11:11:34.568Z,0.6
2022-12-18T11:12:35.228Z,0.4
2022-12-18T11:13:34.192Z,0.7
2022-12-18T11:14:43.592Z,0.6
2022-12-18T11:15:34.837Z,0.2
2022-12-18T11:16:57.915Z,0.5
2022-12-18T11:17:35.874Z,0.5
2022-12-18T11:18:35.243Z,0.2
2022-12-18T11:19:37.830Z,0.5
2022-12-18T11:20:35.538Z,0.8
2022-12-18T11:21:39.226Z,0.8
2022-12-18T11:22:35.569Z,0.2
2022-12-18T11:23:34.641Z,0.3
2022-12-18T11:24:34.786Z,0.6
2022-12-18T11:25:35.996Z,0.4
2022-12-18T11:26:35.027Z,0.9
2022-12-18T11:27:34.388Z,0.6
2022-12-18T11:28:39.007Z,0.7
2022-12-18T11:29:35.429Z,0.7
2022-12-18T11:30:35.729Z,0.8
2022-12-18T11:31:34.530Z,0.7
2022-12-18T11:32:36.091Z,0.5
2022-12-18T11:33:34.250Z,1.1
2022-12-18T11:34:34.899Z,0.6
2022-12-18T11:35:40.406Z,0.3
2022-12-18T11:36:39.263Z,0.5
2022-12-18T11:37:34.818Z,0.8
2022-12-18T11:38:41.058Z,0.9
2022-12-18T11:39:40.395Z,1.3
2022-12-18T11:40:40.859Z,0.4
2022-12-18T11:41:53.883Z,0.8
2022-12-18T11:42:44.798Z,0.5
2022-12-18T11:43:38.122Z,0.6
2022-12-18T11:44:39.623Z,0.7
2022-12-18T11:45:39.060Z,0.2
2022-12-18T11:46:39.616Z,0.9
2022-12-18T11:47:52.293Z,0.7
2022-12-18T11:48:38.236Z,1.0
2022-12-18T11:49:35.254Z,0.8
2022-12-18T11:50:39.305Z,0.5
2022-12-18T11:51:41.832Z,0.7
2022-12-18T11:52:37.093Z,0.5
2022-12-18T11:53:34.820Z,0.8
2022-12-18T11:54:34.645Z,0.4
2022-12-18T11:55:39.322Z,0.4
2022-12-18T11:56:36.096Z,0.4
2022-12-18T11:57:38.945Z,0.7
2022-12-18T11:58:47.808Z,0.3
2022-12-18T11:59:39.475Z,0.7
2022-12-18T12:00:38.000Z,0.5
2022-12-18T12:01:51.072Z,0.6
2022-12-18T12:02:42.502Z,0.5
2022-12-18T12:03:51.415Z,0.2
2022-12-18T12:04:39.535Z,0.5
2022-12-18T12:05:41.895Z,0.5
2022-12-18T12:06:39.003Z,0.6
2022-12-18T12:07:42.367Z,0.7
2022-12-18T12:08:39.492Z,0.5
2022-12-18T12:09:39.615Z,0.4
2022-12-18T12:10:39.172Z,0.7
2022-12-18T12:11:44.842Z,0.4
2022-12-18T12:12:52.810Z,0.7
2022-12-18T12:13:40.050Z,0.2
2022-12-18T12:14:39.423Z,0.3
2022-12-18T12:15:41.860Z,0.6
2022-12-18T12:16:44.895Z,0.4
2022-12-18T12:17:39.814Z,0.2
2022-12-18T12:18:51.359Z,0.7
2022-12-18T12:19:41.895Z,0.7
2022-12-18T12:20:39.061Z,0.8
2022-12-18T12:21:41.643Z,0.4
2022-12-18T12:22:39.667Z,1.2
2022-12-18T12:23:39.457Z,1.0
2022-12-18T12:24:44.915Z,0.5
2022-12-18T12:25:41.851Z,0.6
2022-12-18T12:26:39.681Z,0.4
2022-12-18T12:27:45.345Z,0.5
2022-12-18T12:28:42.814Z,0.6
2022-12-18T12:29:50.909Z,0.2
2022-12-18T12:30:38.987Z,0.8
2022-12-18T12:31:42.367Z,0.4
2022-12-18T12:32:42.358Z,0.5
2022-12-18T12:33:45.348Z,0.6
2022-12-18T12:34:39.134Z,0.4
2022-12-18T12:35:47.533Z,0.1
2022-12-18T12:36:45.344Z,0.6
2022-12-18T12:37:51.361Z,0.8
2022-12-18T12:38:37.163Z,0.5
2022-12-18T12:39:37.892Z,0.5
2022-12-18T12:40:53.815Z,0.6
2022-12-18T12:41:35.256Z,0.5
2022-12-18T12:42:38.810Z,0.1
2022-12-18T12:43:49.223Z,0.5
2022-12-18T12:44:37.740Z,0.6
2022-12-18T12:45:37.553Z,0.8
2022-12-18T12:46:37.509Z,1.0
2022-12-18T12:47:38.468Z,0.9
2022-12-18T12:48:39.495Z,0.4
2022-12-18T12:49:39.053Z,0.8
2022-12-18T12:50:35.654Z,0.5
2022-12-18T12:51:39.466Z,1.2
2022-12-18T12:52:37.327Z,0.5
2022-12-18T12:53:36.308Z,0.3
2022-12-18T12:54:34.578Z,0.6
2022-12-18T12:55:34.782Z,0.9
2022-12-18T12:56:42.356Z,0.6
2022-12-18T12:57:36.903Z,0.0
2022-12-18T12:58:39.074Z,0.1
2022-12-18T12:59:44.349Z,0.2
2022-12-18T13:00:52.810Z,0.8
2022-12-18T13:01:41.934Z,1.0
2022-12-18T13:02:39.296Z,0.5
2022-12-18T13:03:39.050Z,0.3
2022-12-18T13:04:41.352Z,0.5
2022-12-18T13:05:51.294Z,0.6
2022-12-18T13:06:44.715Z,0.6
2022-12-18T13:07:41.688Z,0.7
2022-12-18T13:08:39.033Z,0.5
2022-12-18T13:09:39.705Z,0.6
2022-12-18T13:10:39.129Z,0.6
2022-12-18T13:11:41.315Z,0.3
2022-12-18T13:12:35.193Z,0.9
2022-12-18T13:13:38.958Z,0.5
2022-12-18T13:14:35.978Z,0.8
2022-12-18T13:15:40.003Z,0.8
2022-12-18T13:16:34.363Z,0.8
2022-12-18T13:17:34.176Z,0.9
2022-12-18T13:18:34.300Z,0.9
2022-12-18T13:19:35.181Z,0.4
2022-12-18T13:20:42.232Z,0.5
2022-12-18T13:21:34.564Z,1.0
2022-12-18T13:22:38.581Z,0.9
2022-12-18T13:23:35.162Z,0.6
2022-12-18T13:24:34.645Z,0.6
2022-12-18T13:25:38.139Z,0.6
2022-12-18T13:26:34.326Z,0.3
2022-12-18T13:27:47.852Z,1.1
2022-12-18T13:28:38.832Z,0.6
2022-12-18T13:29:44.713Z,0.3
2022-12-18T13:30:39.298Z,0.3
2022-12-18T13:31:44.848Z,0.0
2022-12-18T13:32:34.140Z,0.2
2022-12-18T13:34:35.154Z,0.7
2022-12-18T13:35:38.227Z,0.5
2022-12-18T13:36:34.179Z,0.9
2022-12-18T13:37:41.295Z,0.6
2022-12-18T13:38:36.580Z,0.6
2022-12-18T13:39:35.489Z,0.6
2022-12-18T13:40:44.898Z,0.6
2022-12-18T13:41:34.224Z,0.5
2022-12-18T13:42:39.892Z,0.7
2022-12-18T13:43:37.436Z,0.2
2022-12-18T13:44:41.134Z,1.1
2022-12-18T13:45:49.312Z,0.8
2022-12-18T13:46:44.106Z,0.4
2022-12-18T13:47:35.067Z,0.5